createdAt,value
2023-04-14T00:01:01.531Z,22.91
2023-04-14T00:03:31.702Z,22.90
2023-04-14T00:06:02.325Z,22.90
2023-04-14T00:08:32.067Z,22.90
2023-04-14T00:11:02.190Z,22.90
2023-04-14T00:13:33.894Z,22.90
2023-04-14T00:16:04.062Z,22.89
2023-04-14T00:18:34.203Z,22.89
2023-04-14T00:21:04.671Z,22.90
2023-04-14T00:23:34.777Z,22.89
2023-04-14T00:26:04.950Z,22.89
2023-04-14T00:28:36.382Z,22.90
2023-04-14T00:31:07.022Z,22.89
2023-04-14T00:33:37.219Z,22.88
2023-04-14T00:36:07.592Z,22.88
2023-04-14T00:38:37.673Z,22.88
2023-04-14T00:41:08.097Z,22.87
2023-04-14T00:43:40.217Z,22.87
2023-04-14T00:46:10.712Z,22.87
2023-04-14T00:48:40.723Z,22.87
2023-04-14T00:51:12.407Z,22.87
2023-04-14T00:53:43.389Z,22.86
2023-04-14T00:56:13.308Z,22.85
2023-04-14T00:58:45.484Z,22.84
2023-04-14T01:01:18.950Z,22.83
2023-04-14T01:03:49.383Z,22.82
2023-04-14T01:06:19.641Z,22.82
2023-04-14T01:08:50.894Z,22.81
2023-04-14T01:11:40.875Z,22.80
2023-04-14T01:14:24.830Z,22.79
2023-04-14T01:17:01.800Z,22.78
2023-04-14T01:19:59.807Z,22.77
2023-04-14T01:22:35.548Z,22.75
2023-04-14T01:26:23.074Z,22.72
2023-04-14T01:29:38.394Z,22.69
2023-04-14T01:32:16.702Z,22.65
2023-04-14T01:34:54.177Z,22.63
2023-04-14T01:37:34.409Z,22.62
2023-04-14T01:40:11.945Z,22.60
2023-04-14T01:42:49.292Z,22.59
2023-04-14T01:45:27.056Z,22.57
2023-04-14T01:48:00.936Z,22.54
2023-04-14T01:50:34.506Z,22.52
2023-04-14T01:53:06.914Z,22.50
2023-04-14T01:55:39.294Z,22.49
2023-04-14T01:58:11.950Z,22.48
2023-04-14T02:00:45.167Z,22.47
2023-04-14T02:03:21.080Z,22.47
2023-04-14T02:05:54.897Z,22.45
2023-04-14T02:08:27.413Z,22.43
2023-04-14T02:11:00.230Z,22.42
2023-04-14T02:13:33.153Z,22.40
2023-04-14T02:16:05.680Z,22.39
2023-04-14T02:18:41.287Z,22.39
2023-04-14T02:21:14.332Z,22.36
2023-04-14T02:23:44.736Z,22.34
2023-04-14T02:26:18.025Z,22.32
2023-04-14T02:28:56.397Z,22.31
2023-04-14T02:31:32.453Z,22.29
2023-04-14T02:34:08.154Z,22.28
2023-04-14T02:36:45.459Z,22.29
2023-04-14T02:39:21.371Z,22.27
2023-04-14T02:42:01.839Z,22.25
2023-04-14T02:44:37.604Z,22.22
2023-04-14T02:47:11.832Z,22.21
2023-04-14T02:49:47.057Z,22.18
2023-04-14T02:52:21.782Z,22.15
2023-04-14T02:54:55.192Z,22.13
2023-04-14T02:57:27.653Z,22.08
2023-04-14T02:59:59.175Z,22.06
2023-04-14T03:02:30.769Z,22.03
2023-04-14T03:05:04.122Z,22.00
2023-04-14T03:07:35.408Z,21.98
2023-04-14T03:10:06.625Z,21.97
2023-04-14T03:12:40.027Z,21.97
2023-04-14T03:15:12.339Z,21.96
2023-04-14T03:17:45.507Z,21.95
2023-04-14T03:20:22.137Z,21.94
2023-04-14T03:22:58.715Z,21.93
2023-04-14T03:25:32.036Z,21.94
2023-04-14T03:28:06.804Z,21.94
2023-04-14T03:30:41.752Z,21.95
2023-04-14T03:33:14.825Z,21.95
2023-04-14T03:35:50.412Z,21.96
2023-04-14T03:38:24.139Z,21.98
2023-04-14T03:40:55.711Z,21.99
2023-04-14T03:43:27.622Z,22.00
2023-04-14T03:45:58.555Z,22.01
2023-04-14T03:48:34.747Z,22.03
2023-04-14T03:51:09.944Z,22.04
2023-04-14T03:53:45.069Z,22.02
2023-04-14T03:56:16.357Z,22.02
2023-04-14T03:58:51.048Z,22.01
2023-04-14T04:01:26.046Z,22.01
2023-04-14T04:03:58.233Z,22.00
2023-04-14T04:06:31.926Z,22.00
2023-04-14T04:09:04.220Z,22.00
2023-04-14T04:11:37.569Z,22.00
2023-04-14T04:14:09.494Z,22.00
2023-04-14T04:16:46.004Z,22.00
2023-04-14T04:19:17.521Z,22.00
2023-04-14T04:21:54.587Z,21.99
2023-04-14T04:24:29.855Z,22.00
2023-04-14T04:27:01.718Z,22.00
2023-04-14T04:29:32.630Z,22.02
2023-04-14T04:32:03.448Z,22.02
2023-04-14T04:34:35.400Z,22.03
2023-04-14T04:37:09.144Z,22.05
2023-04-14T04:39:39.434Z,22.07
2023-04-14T04:42:10.348Z,22.09
2023-04-14T04:44:40.756Z,22.12
2023-04-14T04:47:12.572Z,22.16
2023-04-14T04:49:42.760Z,22.17
2023-04-14T04:52:14.832Z,22.21
2023-04-14T04:54:45.717Z,22.26
2023-04-14T04:57:16.419Z,22.29
2023-04-14T04:59:46.802Z,22.34
2023-04-14T05:02:19.575Z,22.39
2023-04-14T05:04:49.946Z,22.43
2023-04-14T05:07:22.541Z,22.47
2023-04-14T05:09:51.997Z,22.51
2023-04-14T05:12:22.873Z,22.55
2023-04-14T05:14:53.043Z,22.61
2023-04-14T05:17:23.615Z,22.64
2023-04-14T05:19:53.629Z,22.70
2023-04-14T05:22:25.220Z,22.76
2023-04-14T05:24:54.845Z,22.81
2023-04-14T05:27:24.530Z,22.86
2023-04-14T05:29:55.880Z,22.93
2023-04-14T05:32:29.195Z,22.99
2023-04-14T05:35:00.057Z,23.04
2023-04-14T05:37:31.739Z,23.10
2023-04-14T05:40:01.332Z,23.13
2023-04-14T05:42:31.426Z,23.19
2023-04-14T05:45:01.512Z,23.24
2023-04-14T05:47:31.822Z,23.31
2023-04-14T05:50:01.610Z,23.37
2023-04-14T05:52:33.776Z,23.43
2023-04-14T05:55:03.292Z,23.50
2023-04-14T05:57:33.224Z,23.56
2023-04-14T06:00:03.863Z,23.64
2023-04-14T06:02:34.137Z,23.72
2023-04-14T06:05:06.965Z,23.78
2023-04-14T06:07:39.499Z,23.85
2023-04-14T06:10:11.475Z,23.91
2023-04-14T06:12:41.656Z,23.99
2023-04-14T06:15:12.386Z,24.05
2023-04-14T06:17:42.591Z,24.14
2023-04-14T06:20:14.098Z,24.20
2023-04-14T06:22:45.721Z,24.28
2023-04-14T06:25:16.099Z,24.36
2023-04-14T06:27:46.100Z,24.44
2023-04-14T06:30:17.329Z,24.51
2023-04-14T06:32:48.917Z,24.58
2023-04-14T06:35:31.964Z,24.66
2023-04-14T06:38:05.410Z,24.74
2023-04-14T06:40:34.945Z,24.79
2023-04-14T06:43:05.112Z,24.88
2023-04-14T06:45:35.189Z,24.95
2023-04-14T06:48:05.216Z,25.02
2023-04-14T06:50:35.349Z,25.07
2023-04-14T06:53:07.592Z,25.14
2023-04-14T06:55:38.457Z,25.21
2023-04-14T06:58:08.110Z,25.28
2023-04-14T07:00:38.384Z,25.33
2023-04-14T07:03:08.011Z,25.40
2023-04-14T07:05:38.762Z,25.44
2023-04-14T07:08:10.881Z,25.52
2023-04-14T07:10:40.917Z,25.58
2023-04-14T07:13:11.179Z,25.63
2023-04-14T07:15:41.356Z,25.69
2023-04-14T07:18:11.657Z,25.73
2023-04-14T07:20:41.316Z,25.78
2023-04-14T07:23:12.977Z,25.82
2023-04-14T07:25:42.642Z,25.87
2023-04-14T07:28:12.387Z,25.91
2023-04-14T07:30:42.496Z,25.95
2023-04-14T07:33:13.185Z,25.99
2023-04-14T07:35:54.487Z,26.05
2023-04-14T07:38:33.288Z,26.11
2023-04-14T07:41:06.705Z,26.18
2023-04-14T07:43:37.295Z,26.23
2023-04-14T07:46:09.133Z,26.30
2023-04-14T07:48:40.710Z,26.36
2023-04-14T07:51:11.940Z,26.42
2023-04-14T07:53:45.385Z,26.49
2023-04-14T07:56:15.880Z,26.53
2023-04-14T07:58:45.708Z,26.60
2023-04-14T08:01:16.096Z,26.65
2023-04-14T08:03:46.430Z,26.69
2023-04-14T08:06:17.171Z,26.74
2023-04-14T08:08:48.954Z,26.79
2023-04-14T08:11:19.057Z,26.84
2023-04-14T08:13:50.305Z,26.90
2023-04-14T08:16:20.511Z,26.96
2023-04-14T08:18:50.232Z,27.00
2023-04-14T08:21:20.295Z,27.04
2023-04-14T08:23:51.424Z,27.09
2023-04-14T08:26:21.596Z,27.14
2023-04-14T08:28:51.548Z,27.20
2023-04-14T08:31:22.064Z,27.24
2023-04-14T08:33:53.459Z,27.29
2023-04-14T08:36:23.264Z,27.33
2023-04-14T08:38:55.434Z,27.36
2023-04-14T08:41:26.012Z,27.39
2023-04-14T08:43:56.214Z,27.43
2023-04-14T08:46:28.971Z,27.47
2023-04-14T08:49:07.069Z,27.49
2023-04-14T08:51:41.225Z,27.51
2023-04-14T08:54:15.905Z,27.55
2023-04-14T08:56:45.984Z,27.58
2023-04-14T08:59:16.331Z,27.62
2023-04-14T09:01:47.181Z,27.66
2023-04-14T09:04:17.588Z,27.69
2023-04-14T09:06:47.734Z,27.71
2023-04-14T09:09:20.251Z,27.74
2023-04-14T09:11:50.960Z,27.76
2023-04-14T09:14:23.067Z,27.77
2023-04-14T09:16:54.246Z,27.79
2023-04-14T09:19:26.335Z,27.79
2023-04-14T09:21:57.667Z,27.80
2023-04-14T09:24:34.490Z,27.80
2023-04-14T09:27:06.528Z,27.82
2023-04-14T09:29:37.024Z,27.83
2023-04-14T09:32:08.179Z,27.85
2023-04-14T09:34:38.111Z,27.86
2023-04-14T09:37:11.343Z,27.89
2023-04-14T09:39:52.163Z,27.90
2023-04-14T09:42:22.341Z,27.91
2023-04-14T09:45:01.604Z,27.93
2023-04-14T09:47:31.300Z,27.93
2023-04-14T09:50:04.177Z,27.95
2023-04-14T09:52:42.777Z,27.97
2023-04-14T09:55:17.212Z,27.98
2023-04-14T09:57:49.911Z,27.98
2023-04-14T10:00:24.989Z,27.99
2023-04-14T10:02:59.314Z,27.98
2023-04-14T10:05:34.569Z,27.99
2023-04-14T10:08:06.141Z,27.96
2023-04-14T10:10:37.740Z,27.98
2023-04-14T10:13:08.119Z,27.97
2023-04-14T10:15:38.350Z,27.98
2023-04-14T10:18:08.769Z,27.99
2023-04-14T10:20:40.083Z,28.01
2023-04-14T10:23:11.569Z,28.02
2023-04-14T10:25:43.293Z,28.03
2023-04-14T10:28:14.440Z,28.04
2023-04-14T10:30:45.468Z,28.06
2023-04-14T10:33:18.076Z,28.07
2023-04-14T10:35:53.911Z,28.09
2023-04-14T10:38:24.123Z,28.10
2023-04-14T10:40:57.346Z,28.11
2023-04-14T10:43:31.167Z,28.11
2023-04-14T10:46:02.138Z,28.11
2023-04-14T10:48:37.476Z,28.10
2023-04-14T10:51:10.489Z,28.11
2023-04-14T10:53:47.147Z,28.10
2023-04-14T10:56:22.007Z,28.10
2023-04-14T10:58:59.077Z,28.10
2023-04-14T11:01:33.191Z,28.11
2023-04-14T11:04:21.186Z,28.10
2023-04-14T11:06:57.430Z,28.10
2023-04-14T11:09:39.500Z,28.11
2023-04-14T11:12:28.160Z,28.10
2023-04-14T11:14:59.233Z,28.09
2023-04-14T11:17:30.775Z,28.09
2023-04-14T11:20:00.786Z,28.08
2023-04-14T11:22:41.944Z,28.08
2023-04-14T11:25:15.493Z,28.07
2023-04-14T11:27:49.758Z,28.05
2023-04-14T11:30:21.915Z,28.04
2023-04-14T11:32:54.543Z,28.04
2023-04-14T11:35:28.330Z,28.04
2023-04-14T11:38:00.246Z,28.05
2023-04-14T11:40:30.978Z,28.04
2023-04-14T11:43:03.540Z,28.05
2023-04-14T11:45:33.610Z,28.07
2023-04-14T11:48:06.322Z,28.08
2023-04-14T11:50:39.312Z,28.08
2023-04-14T11:53:11.844Z,28.07
2023-04-14T11:55:46.773Z,28.09
2023-04-14T11:58:24.859Z,28.07
2023-04-14T12:00:56.397Z,28.07
2023-04-14T12:03:30.585Z,28.08
2023-04-14T12:06:02.134Z,28.07
2023-04-14T12:08:33.080Z,28.08
2023-04-14T12:11:15.310Z,28.09
2023-04-14T12:13:48.739Z,28.09
2023-04-14T12:16:19.868Z,28.09
2023-04-14T12:18:50.067Z,28.07
2023-04-14T12:21:21.825Z,28.09
2023-04-14T12:23:52.338Z,28.07
2023-04-14T12:26:23.319Z,28.06
2023-04-14T12:29:00.762Z,28.05
2023-04-14T12:31:31.988Z,28.04
2023-04-14T12:34:06.870Z,28.03
2023-04-14T12:36:50.195Z,28.03
2023-04-14T12:39:22.546Z,28.03
2023-04-14T12:41:52.865Z,28.03
2023-04-14T12:44:24.959Z,28.01
2023-04-14T12:46:56.622Z,28.00
2023-04-14T12:49:40.925Z,28.00
2023-04-14T12:52:11.083Z,27.97
2023-04-14T12:54:52.348Z,27.96
2023-04-14T12:57:24.025Z,27.93
2023-04-14T12:59:55.604Z,27.92
2023-04-14T13:02:25.607Z,27.91
2023-04-14T13:04:55.268Z,27.90
2023-04-14T13:07:25.666Z,27.89
2023-04-14T13:09:56.131Z,27.87
2023-04-14T13:12:26.261Z,27.87
2023-04-14T13:14:57.792Z,27.86
2023-04-14T13:17:28.170Z,27.84
2023-04-14T13:19:58.838Z,27.84
2023-04-14T13:22:29.269Z,27.83
2023-04-14T13:25:00.928Z,27.81
2023-04-14T13:27:30.369Z,27.80
2023-04-14T13:30:01.862Z,27.80
2023-04-14T13:32:31.929Z,27.78
2023-04-14T13:35:02.171Z,27.77
2023-04-14T13:37:31.673Z,27.75
2023-04-14T13:40:01.929Z,27.75
2023-04-14T13:42:32.105Z,27.72
2023-04-14T13:45:03.762Z,27.72
2023-04-14T13:47:33.334Z,27.70
2023-04-14T13:50:03.884Z,27.69
2023-04-14T13:52:34.117Z,27.67
2023-04-14T13:55:04.056Z,27.65
2023-04-14T13:57:34.105Z,27.64
2023-04-14T14:00:11.384Z,27.62
2023-04-14T14:02:41.724Z,27.60
2023-04-14T14:05:13.237Z,27.59
2023-04-14T14:07:42.675Z,27.57
2023-04-14T14:10:13.843Z,27.56
2023-04-14T14:12:43.901Z,27.55
2023-04-14T14:15:17.125Z,27.55
2023-04-14T14:17:47.276Z,27.53
2023-04-14T14:20:17.185Z,27.51
2023-04-14T14:22:47.516Z,27.50
2023-04-14T14:25:21.070Z,27.48
2023-04-14T14:27:52.158Z,27.46
2023-04-14T14:30:24.256Z,27.45
2023-04-14T14:32:54.338Z,27.45
2023-04-14T14:35:24.413Z,27.45
2023-04-14T14:37:54.736Z,27.44
2023-04-14T14:40:24.769Z,27.41
2023-04-14T14:42:55.120Z,27.40
2023-04-14T14:45:30.784Z,27.40
2023-04-14T14:48:02.122Z,27.38
2023-04-14T14:50:32.216Z,27.37
2023-04-14T14:53:03.467Z,27.35
2023-04-14T14:55:34.551Z,27.34
2023-04-14T14:58:08.648Z,27.32
2023-04-14T15:00:40.430Z,27.30
2023-04-14T15:03:10.324Z,27.30
2023-04-14T15:05:40.473Z,27.30
2023-04-14T15:08:10.798Z,27.27
2023-04-14T15:10:40.810Z,27.26
2023-04-14T15:13:10.826Z,27.25
2023-04-14T15:15:43.019Z,27.24
2023-04-14T15:18:13.502Z,27.22
2023-04-14T15:20:43.931Z,27.22
2023-04-14T15:23:14.233Z,27.20
2023-04-14T15:25:44.362Z,27.18
2023-04-14T15:28:15.221Z,27.17
2023-04-14T15:30:46.722Z,27.15
2023-04-14T15:33:16.886Z,27.12
2023-04-14T15:35:47.028Z,27.12
2023-04-14T15:38:16.720Z,27.09
2023-04-14T15:40:46.830Z,27.07
2023-04-14T15:43:17.447Z,27.05
2023-04-14T15:45:49.578Z,27.04
2023-04-14T15:48:19.703Z,27.02
2023-04-14T15:50:49.810Z,27.00
2023-04-14T15:53:19.996Z,26.98
2023-04-14T15:55:52.618Z,26.98
2023-04-14T15:58:23.110Z,26.95
2023-04-14T16:00:54.174Z,26.94
2023-04-14T16:03:24.540Z,26.92
2023-04-14T16:06:03.527Z,26.91
2023-04-14T16:08:33.675Z,26.89
2023-04-14T16:11:03.926Z,26.89
2023-04-14T16:13:34.159Z,26.87
2023-04-14T16:16:06.303Z,26.86
2023-04-14T16:18:37.327Z,26.85
2023-04-14T16:21:07.405Z,26.84
2023-04-14T16:23:37.752Z,26.83
2023-04-14T16:26:07.923Z,26.81
2023-04-14T16:28:37.731Z,26.82
2023-04-14T16:31:10.069Z,26.80
2023-04-14T16:33:40.052Z,26.79
2023-04-14T16:36:09.896Z,26.77
2023-04-14T16:38:39.783Z,26.77
2023-04-14T16:41:09.897Z,26.76
2023-04-14T16:43:40.053Z,26.75
2023-04-14T16:46:12.305Z,26.74
2023-04-14T16:48:42.550Z,26.73
2023-04-14T16:51:13.033Z,26.72
2023-04-14T16:53:44.538Z,26.69
2023-04-14T16:56:14.553Z,26.68
2023-04-14T16:58:44.688Z,26.68
2023-04-14T17:01:16.384Z,26.66
2023-04-14T17:03:46.162Z,26.64
2023-04-14T17:06:16.101Z,26.63
2023-04-14T17:08:46.548Z,26.61
2023-04-14T17:11:17.265Z,26.60
2023-04-14T17:13:47.292Z,26.59
2023-04-14T17:16:19.503Z,26.57
2023-04-14T17:18:51.659Z,26.56
2023-04-14T17:21:21.764Z,26.54
2023-04-14T17:23:51.933Z,26.53
2023-04-14T17:26:21.943Z,26.51
2023-04-14T17:28:51.989Z,26.50
2023-04-14T17:31:24.350Z,26.50
2023-04-14T17:33:54.548Z,26.48
2023-04-14T17:36:24.797Z,26.46
2023-04-14T17:38:54.352Z,26.45
2023-04-14T17:41:25.306Z,26.44
2023-04-14T17:43:55.008Z,26.42
2023-04-14T17:46:34.293Z,26.42
2023-04-14T17:49:04.746Z,26.39
2023-04-14T17:51:35.723Z,26.38
2023-04-14T17:54:08.094Z,26.37
2023-04-14T17:56:37.873Z,26.35
2023-04-14T17:59:07.535Z,26.33
2023-04-14T18:01:39.184Z,26.32
2023-04-14T18:04:09.616Z,26.31
2023-04-14T18:06:39.850Z,26.29
2023-04-14T18:09:10.891Z,26.29
2023-04-14T18:11:40.975Z,26.27
2023-04-14T18:14:11.232Z,26.26
2023-04-14T18:16:43.025Z,26.26
2023-04-14T18:19:13.168Z,26.23
2023-04-14T18:21:44.843Z,26.22
2023-04-14T18:26:48.032Z,26.20
2023-04-14T18:29:17.992Z,26.18
2023-04-14T18:31:49.555Z,26.18
2023-04-14T18:34:19.907Z,26.17
2023-04-14T18:36:49.937Z,26.15
2023-04-14T18:39:19.963Z,26.13
2023-04-14T18:41:50.141Z,26.12
2023-04-14T18:44:20.201Z,26.10
2023-04-14T18:46:52.290Z,26.10
2023-04-14T18:49:22.563Z,26.09
2023-04-14T18:51:52.786Z,26.08
2023-04-14T18:54:23.768Z,26.07
2023-04-14T18:56:53.910Z,26.05
2023-04-14T18:59:24.662Z,26.04
2023-04-14T19:01:56.297Z,26.04
2023-04-14T19:04:26.742Z,26.02
2023-04-14T19:06:56.844Z,26.02
2023-04-14T19:09:27.836Z,26.00
2023-04-14T19:11:58.146Z,25.99
2023-04-14T19:14:28.238Z,25.98
2023-04-14T19:16:59.677Z,25.98
2023-04-14T19:19:30.102Z,25.98
2023-04-14T19:22:00.256Z,25.96
2023-04-14T19:24:30.541Z,25.95
2023-04-14T19:27:00.478Z,25.93
2023-04-14T19:29:29.984Z,25.93
2023-04-14T19:32:01.781Z,25.92
2023-04-14T19:34:32.025Z,25.91
2023-04-14T19:37:03.654Z,25.89
2023-04-14T19:39:34.608Z,25.88
2023-04-14T19:42:04.741Z,25.87
2023-04-14T19:44:35.672Z,25.86
2023-04-14T19:47:07.983Z,25.85
2023-04-14T19:49:37.931Z,25.83
2023-04-14T19:52:08.396Z,25.82
2023-04-14T19:54:38.676Z,25.80
2023-04-14T19:57:08.860Z,25.80
2023-04-14T19:59:40.430Z,25.79
2023-04-14T20:02:13.605Z,25.78
2023-04-14T20:04:43.983Z,25.77
2023-04-14T20:07:13.661Z,25.76
2023-04-14T20:09:46.809Z,25.75
2023-04-14T20:12:17.026Z,25.73
2023-04-14T20:14:47.514Z,25.72
2023-04-14T20:17:20.672Z,25.72
2023-04-14T20:19:50.957Z,25.70
2023-04-14T20:22:21.089Z,25.69
2023-04-14T20:24:51.242Z,25.68
2023-04-14T20:27:20.937Z,25.67
2023-04-14T20:29:51.723Z,25.65
2023-04-14T20:32:24.162Z,25.65
2023-04-14T20:34:54.434Z,25.64
2023-04-14T20:37:24.625Z,25.62
2023-04-14T20:39:55.430Z,25.61
2023-04-14T20:42:25.664Z,25.59
2023-04-14T20:44:55.811Z,25.58
2023-04-14T20:47:27.946Z,25.58
2023-04-14T20:49:57.966Z,25.56
2023-04-14T20:52:28.495Z,25.55
2023-04-14T20:54:58.558Z,25.55
2023-04-14T20:57:28.635Z,25.53
2023-04-14T20:59:58.569Z,25.52
2023-04-14T21:02:30.357Z,25.50
2023-04-14T21:05:00.121Z,25.49
2023-04-14T21:07:30.424Z,25.48
2023-04-14T21:10:00.634Z,25.47
2023-04-14T21:12:35.287Z,25.46
2023-04-14T21:15:45.602Z,25.44
2023-04-14T21:17:58.325Z,25.42
2023-04-14T21:20:29.447Z,25.40
2023-04-14T21:22:59.498Z,25.39
2023-04-14T21:25:29.688Z,25.38
2023-04-14T21:27:59.822Z,25.36
2023-04-14T21:30:29.312Z,25.33
2023-04-14T21:33:00.592Z,25.33
2023-04-14T21:35:30.067Z,25.32
2023-04-14T21:38:00.016Z,25.30
2023-04-14T21:40:30.607Z,25.30
2023-04-14T21:43:00.486Z,25.29
2023-04-14T21:45:30.670Z,25.28
2023-04-14T21:48:03.216Z,25.26
2023-04-14T21:50:33.413Z,25.26
2023-04-14T21:53:04.563Z,25.24
2023-04-14T21:55:34.808Z,25.23
2023-04-14T21:58:05.869Z,25.22
2023-04-14T22:00:37.544Z,25.21
2023-04-14T22:03:11.276Z,25.20
2023-04-14T22:05:42.041Z,25.18
2023-04-14T22:08:12.556Z,25.18
2023-04-14T22:10:43.618Z,25.17
2023-04-14T22:13:13.497Z,25.16
2023-04-14T22:15:45.355Z,25.15
2023-04-14T22:18:17.514Z,25.14
2023-04-14T22:20:47.926Z,25.12
2023-04-14T22:23:18.695Z,25.13
2023-04-14T22:25:49.412Z,25.11
2023-04-14T22:28:19.636Z,25.09
2023-04-14T22:30:49.503Z,25.09
2023-04-14T22:33:20.893Z,25.08
2023-04-14T22:35:51.584Z,25.06
2023-04-14T22:38:22.057Z,25.06
2023-04-14T22:40:52.960Z,25.04
2023-04-14T22:43:23.170Z,25.03
2023-04-14T22:45:52.870Z,25.01
2023-04-14T22:48:24.561Z,25.00
2023-04-14T22:50:54.930Z,24.99
2023-04-14T22:53:25.106Z,24.98
2023-04-14T22:55:55.060Z,24.97
2023-04-14T22:58:25.568Z,24.97
2023-04-14T23:00:55.294Z,24.95
2023-04-14T23:03:27.214Z,24.94
2023-04-14T23:05:56.928Z,24.93
2023-04-14T23:08:27.544Z,24.92
2023-04-14T23:10:57.986Z,24.91
2023-04-14T23:13:28.550Z,24.91
2023-04-14T23:15:58.869Z,24.90
2023-04-14T23:18:30.197Z,24.89
2023-04-14T23:21:00.304Z,24.87
2023-04-14T23:23:29.761Z,24.87
2023-04-14T23:25:59.932Z,24.84
2023-04-14T23:28:29.354Z,24.85
2023-04-14T23:30:59.553Z,24.83
2023-04-14T23:33:31.204Z,24.83
2023-04-14T23:36:01.093Z,24.81
2023-04-14T23:38:31.101Z,24.80
2023-04-14T23:41:00.722Z,24.80
2023-04-14T23:43:30.564Z,24.79
2023-04-14T23:46:00.752Z,24.78
2023-04-14T23:48:31.775Z,24.77
2023-04-14T23:51:13.811Z,24.76
2023-04-14T23:53:45.236Z,24.74
2023-04-14T23:56:15.079Z,24.74
2023-04-14T23:58:44.974Z,24.73
